sensor_id;sensor_type;location;lat;lon;timestamp;temperature;humidity
38428;DHT22;24211;49.980;19.776;2023-05-20T00:01:49;11.80;99.90
38428;DHT22;24211;49.980;19.776;2023-05-20T00:04:16;11.80;99.90
38428;DHT22;24211;49.980;19.776;2023-05-20T00:06:43;11.80;99.90
38428;DHT22;24211;49.980;19.776;2023-05-20T00:09:10;11.60;99.90
38428;DHT22;24211;49.980;19.776;2023-05-20T00:11:37;11.70;99.90
38428;DHT22;24211;49.980;19.776;2023-05-20T00:14:05;11.80;99.90
38428;DHT22;24211;49.980;19.776;2023-05-20T00:16:33;11.80;99.90
38428;DHT22;24211;49.980;19.776;2023-05-20T00:19:00;11.80;99.90
38428;DHT22;24211;49.980;19.776;2023-05-20T00:21:27;11.90;99.90
38428;DHT22;24211;49.980;19.776;2023-05-20T00:23:55;11.80;99.90
38428;DHT22;24211;49.980;19.776;2023-05-20T00:26:22;11.70;99.90
38428;DHT22;24211;49.980;19.776;2023-05-20T00:28:53;11.70;99.90
38428;DHT22;24211;49.980;19.776;2023-05-20T00:31:20;11.60;99.90
38428;DHT22;24211;49.980;19.776;2023-05-20T00:33:48;11.60;99.90
38428;DHT22;24211;49.980;19.776;2023-05-20T00:36:15;11.60;99.90
38428;DHT22;24211;49.980;19.776;2023-05-20T00:38:42;11.60;99.90
38428;DHT22;24211;49.980;19.776;2023-05-20T00:41:09;11.50;99.90
38428;DHT22;24211;49.980;19.776;2023-05-20T00:43:36;11.60;99.90
38428;DHT22;24211;49.980;19.776;2023-05-20T00:46:04;11.80;99.90
38428;DHT22;24211;49.980;19.776;2023-05-20T00:48:40;11.80;99.90
38428;DHT22;24211;49.980;19.776;2023-05-20T00:51:10;11.80;99.90
38428;DHT22;24211;49.980;19.776;2023-05-20T00:53:40;11.60;99.90
38428;DHT22;24211;49.980;19.776;2023-05-20T00:56:08;11.80;99.90
38428;DHT22;24211;49.980;19.776;2023-05-20T00:58:36;11.60;99.90
38428;DHT22;24211;49.980;19.776;2023-05-20T01:01:05;11.60;99.90
38428;DHT22;24211;49.980;19.776;2023-05-20T01:03:33;11.60;99.90
38428;DHT22;24211;49.980;19.776;2023-05-20T01:06:01;11.70;99.90
38428;DHT22;24211;49.980;19.776;2023-05-20T01:08:29;11.60;99.90
38428;DHT22;24211;49.980;19.776;2023-05-20T01:11:05;11.70;99.90
38428;DHT22;24211;49.980;19.776;2023-05-20T01:13:49;11.60;99.90
38428;DHT22;24211;49.980;19.776;2023-05-20T01:16:22;11.70;99.90
38428;DHT22;24211;49.980;19.776;2023-05-20T01:18:53;11.60;99.90
38428;DHT22;24211;49.980;19.776;2023-05-20T01:21:22;11.60;99.90
38428;DHT22;24211;49.980;19.776;2023-05-20T01:23:49;11.60;99.90
38428;DHT22;24211;49.980;19.776;2023-05-20T01:26:17;11.60;99.90
38428;DHT22;24211;49.980;19.776;2023-05-20T01:28:45;11.60;99.90
38428;DHT22;24211;49.980;19.776;2023-05-20T01:31:30;11.70;99.90
38428;DHT22;24211;49.980;19.776;2023-05-20T01:33:59;11.60;99.90
38428;DHT22;24211;49.980;19.776;2023-05-20T01:36:28;11.50;99.90
38428;DHT22;24211;49.980;19.776;2023-05-20T01:38:57;11.40;99.90
38428;DHT22;24211;49.980;19.776;2023-05-20T01:41:27;11.40;99.90
38428;DHT22;24211;49.980;19.776;2023-05-20T01:43:55;11.60;99.90
38428;DHT22;24211;49.980;19.776;2023-05-20T01:46:23;11.50;99.90
38428;DHT22;24211;49.980;19.776;2023-05-20T01:48:51;11.60;99.90
38428;DHT22;24211;49.980;19.776;2023-05-20T01:51:18;11.70;99.90
38428;DHT22;24211;49.980;19.776;2023-05-20T01:53:45;11.70;99.90
38428;DHT22;24211;49.980;19.776;2023-05-20T01:56:13;11.60;99.90
38428;DHT22;24211;49.980;19.776;2023-05-20T01:58:40;11.50;99.90
38428;DHT22;24211;49.980;19.776;2023-05-20T02:01:08;11.40;99.90
38428;DHT22;24211;49.980;19.776;2023-05-20T02:03:35;11.50;99.90
38428;DHT22;24211;49.980;19.776;2023-05-20T02:06:02;11.50;99.90
38428;DHT22;24211;49.980;19.776;2023-05-20T02:08:29;11.50;99.90
38428;DHT22;24211;49.980;19.776;2023-05-20T02:10:58;11.40;99.90
38428;DHT22;24211;49.980;19.776;2023-05-20T02:13:26;11.50;99.90
38428;DHT22;24211;49.980;19.776;2023-05-20T02:15:54;11.50;99.90
38428;DHT22;24211;49.980;19.776;2023-05-20T02:18:23;11.60;99.90
38428;DHT22;24211;49.980;19.776;2023-05-20T02:20:52;11.60;99.90
38428;DHT22;24211;49.980;19.776;2023-05-20T02:23:19;11.60;99.90
38428;DHT22;24211;49.980;19.776;2023-05-20T02:25:47;11.70;99.90
38428;DHT22;24211;49.980;19.776;2023-05-20T02:28:14;11.80;99.90
38428;DHT22;24211;49.980;19.776;2023-05-20T02:30:42;11.90;99.90
38428;DHT22;24211;49.980;19.776;2023-05-20T02:33:09;11.80;99.90
38428;DHT22;24211;49.980;19.776;2023-05-20T02:35:36;11.80;99.90
38428;DHT22;24211;49.980;19.776;2023-05-20T02:38:03;11.90;99.90
38428;DHT22;24211;49.980;19.776;2023-05-20T02:40:31;11.90;99.90
38428;DHT22;24211;49.980;19.776;2023-05-20T02:42:59;11.90;99.90
38428;DHT22;24211;49.980;19.776;2023-05-20T02:45:28;11.90;99.90
38428;DHT22;24211;49.980;19.776;2023-05-20T02:47:55;11.70;99.90
38428;DHT22;24211;49.980;19.776;2023-05-20T02:50:23;11.90;99.90
38428;DHT22;24211;49.980;19.776;2023-05-20T02:52:50;11.90;99.90
38428;DHT22;24211;49.980;19.776;2023-05-20T02:55:18;12.00;99.90
38428;DHT22;24211;49.980;19.776;2023-05-20T02:57:45;11.80;99.90
38428;DHT22;24211;49.980;19.776;2023-05-20T03:00:13;11.70;99.90
38428;DHT22;24211;49.980;19.776;2023-05-20T03:02:41;11.70;99.90
38428;DHT22;24211;49.980;19.776;2023-05-20T03:05:08;11.80;99.90
38428;DHT22;24211;49.980;19.776;2023-05-20T03:07:36;11.60;99.90
38428;DHT22;24211;49.980;19.776;2023-05-20T03:10:06;11.60;99.90
38428;DHT22;24211;49.980;19.776;2023-05-20T03:12:37;11.60;99.90
38428;DHT22;24211;49.980;19.776;2023-05-20T03:15:05;11.60;99.90
38428;DHT22;24211;49.980;19.776;2023-05-20T03:17:34;11.80;99.90
38428;DHT22;24211;49.980;19.776;2023-05-20T03:20:02;11.80;99.90
38428;DHT22;24211;49.980;19.776;2023-05-20T03:22:29;11.80;99.90
38428;DHT22;24211;49.980;19.776;2023-05-20T03:24:57;11.60;99.90
38428;DHT22;24211;49.980;19.776;2023-05-20T03:27:26;11.70;99.90
38428;DHT22;24211;49.980;19.776;2023-05-20T03:29:55;11.70;99.90
38428;DHT22;24211;49.980;19.776;2023-05-20T03:32:23;11.60;99.90
38428;DHT22;24211;49.980;19.776;2023-05-20T03:34:50;11.70;99.90
38428;DHT22;24211;49.980;19.776;2023-05-20T03:37:18;11.70;99.90
38428;DHT22;24211;49.980;19.776;2023-05-20T03:39:45;11.70;99.90
38428;DHT22;24211;49.980;19.776;2023-05-20T03:42:12;11.70;99.90
38428;DHT22;24211;49.980;19.776;2023-05-20T03:44:40;11.70;99.90
38428;DHT22;24211;49.980;19.776;2023-05-20T03:47:07;11.60;99.90
38428;DHT22;24211;49.980;19.776;2023-05-20T03:49:34;11.70;99.90
38428;DHT22;24211;49.980;19.776;2023-05-20T03:52:02;11.80;99.90
38428;DHT22;24211;49.980;19.776;2023-05-20T03:54:30;11.70;99.90
38428;DHT22;24211;49.980;19.776;2023-05-20T03:56:58;11.80;99.90
38428;DHT22;24211;49.980;19.776;2023-05-20T03:59:27;11.90;99.90
38428;DHT22;24211;49.980;19.776;2023-05-20T04:01:55;12.00;99.90
38428;DHT22;24211;49.980;19.776;2023-05-20T04:04:23;11.90;99.90
38428;DHT22;24211;49.980;19.776;2023-05-20T04:06:51;12.00;99.90
38428;DHT22;24211;49.980;19.776;2023-05-20T04:09:18;12.20;99.90
38428;DHT22;24211;49.980;19.776;2023-05-20T04:11:45;12.10;99.90
38428;DHT22;24211;49.980;19.776;2023-05-20T04:14:12;12.00;99.90
38428;DHT22;24211;49.980;19.776;2023-05-20T04:16:40;11.90;99.90
38428;DHT22;24211;49.980;19.776;2023-05-20T04:19:07;11.90;99.90
38428;DHT22;24211;49.980;19.776;2023-05-20T04:21:34;12.00;99.90
38428;DHT22;24211;49.980;19.776;2023-05-20T04:24:01;11.90;99.90
38428;DHT22;24211;49.980;19.776;2023-05-20T04:26:29;12.00;99.90
38428;DHT22;24211;49.980;19.776;2023-05-20T04:28:56;12.10;99.90
38428;DHT22;24211;49.980;19.776;2023-05-20T04:31:25;12.00;99.90
38428;DHT22;24211;49.980;19.776;2023-05-20T04:33:53;11.90;99.90
38428;DHT22;24211;49.980;19.776;2023-05-20T04:36:21;11.90;99.90
38428;DHT22;24211;49.980;19.776;2023-05-20T04:38:49;11.90;99.90
38428;DHT22;24211;49.980;19.776;2023-05-20T04:41:16;11.90;99.90
38428;DHT22;24211;49.980;19.776;2023-05-20T04:43:43;11.90;99.90
38428;DHT22;24211;49.980;19.776;2023-05-20T04:46:11;11.90;99.90
38428;DHT22;24211;49.980;19.776;2023-05-20T04:48:41;12.00;99.90
38428;DHT22;24211;49.980;19.776;2023-05-20T04:51:13;11.90;99.90
38428;DHT22;24211;49.980;19.776;2023-05-20T04:53:41;12.00;99.90
38428;DHT22;24211;49.980;19.776;2023-05-20T04:56:11;12.00;99.90
38428;DHT22;24211;49.980;19.776;2023-05-20T04:58:39;12.10;99.90
38428;DHT22;24211;49.980;19.776;2023-05-20T05:01:08;12.10;99.90
38428;DHT22;24211;49.980;19.776;2023-05-20T05:03:35;12.20;99.90
38428;DHT22;24211;49.980;19.776;2023-05-20T05:06:03;12.20;99.90
38428;DHT22;24211;49.980;19.776;2023-05-20T05:08:30;12.20;99.90
38428;DHT22;24211;49.980;19.776;2023-05-20T05:10:58;12.30;99.90
38428;DHT22;24211;49.980;19.776;2023-05-20T05:13:26;12.30;99.90
38428;DHT22;24211;49.980;19.776;2023-05-20T05:16:01;12.30;99.90
38428;DHT22;24211;49.980;19.776;2023-05-20T05:18:48;12.40;99.90
38428;DHT22;24211;49.980;19.776;2023-05-20T05:21:15;12.40;99.90
38428;DHT22;24211;49.980;19.776;2023-05-20T05:23:44;12.40;99.90
38428;DHT22;24211;49.980;19.776;2023-05-20T05:26:12;12.30;99.90
38428;DHT22;24211;49.980;19.776;2023-05-20T05:28:41;12.40;99.90
38428;DHT22;24211;49.980;19.776;2023-05-20T05:31:09;12.40;99.90
38428;DHT22;24211;49.980;19.776;2023-05-20T05:33:36;12.40;99.90
38428;DHT22;24211;49.980;19.776;2023-05-20T05:36:08;12.40;99.90
38428;DHT22;24211;49.980;19.776;2023-05-20T05:38:50;12.50;99.90
38428;DHT22;24211;49.980;19.776;2023-05-20T05:41:23;12.60;99.90
38428;DHT22;24211;49.980;19.776;2023-05-20T05:43:51;12.60;99.90
38428;DHT22;24211;49.980;19.776;2023-05-20T05:46:18;12.60;99.90
38428;DHT22;24211;49.980;19.776;2023-05-20T05:48:46;12.60;99.90
38428;DHT22;24211;49.980;19.776;2023-05-20T05:51:18;12.60;99.90
38428;DHT22;24211;49.980;19.776;2023-05-20T05:57:32;12.80;99.90
38428;DHT22;24211;49.980;19.776;2023-05-20T06:00:03;12.90;99.90
38428;DHT22;24211;49.980;19.776;2023-05-20T06:15:09;12.90;99.90
38428;DHT22;24211;49.980;19.776;2023-05-20T06:21:24;13.00;99.90
38428;DHT22;24211;49.980;19.776;2023-05-20T06:23:52;13.10;99.90
38428;DHT22;24211;49.980;19.776;2023-05-20T06:26:19;13.10;99.90
38428;DHT22;24211;49.980;19.776;2023-05-20T06:28:46;13.20;99.90
38428;DHT22;24211;49.980;19.776;2023-05-20T06:31:14;13.30;99.90
38428;DHT22;24211;49.980;19.776;2023-05-20T06:33:42;13.30;99.90
38428;DHT22;24211;49.980;19.776;2023-05-20T06:36:11;13.20;99.90
38428;DHT22;24211;49.980;19.776;2023-05-20T06:38:39;13.30;99.90
38428;DHT22;24211;49.980;19.776;2023-05-20T06:41:07;13.30;99.90
38428;DHT22;24211;49.980;19.776;2023-05-20T06:43:34;13.20;99.90
38428;DHT22;24211;49.980;19.776;2023-05-20T06:46:09;13.20;99.90
38428;DHT22;24211;49.980;19.776;2023-05-20T06:48:47;13.30;99.90
38428;DHT22;24211;49.980;19.776;2023-05-20T06:51:16;13.40;99.90
38428;DHT22;24211;49.980;19.776;2023-05-20T06:53:45;13.30;99.90
38428;DHT22;24211;49.980;19.776;2023-05-20T06:56:14;13.40;99.90
38428;DHT22;24211;49.980;19.776;2023-05-20T06:58:42;13.50;99.90
38428;DHT22;24211;49.980;19.776;2023-05-20T07:01:09;13.50;99.90
38428;DHT22;24211;49.980;19.776;2023-05-20T07:03:37;13.60;99.90
38428;DHT22;24211;49.980;19.776;2023-05-20T07:06:05;13.70;99.90
38428;DHT22;24211;49.980;19.776;2023-05-20T07:08:32;13.60;99.90
38428;DHT22;24211;49.980;19.776;2023-05-20T07:11:00;13.80;99.90
38428;DHT22;24211;49.980;19.776;2023-05-20T07:13:29;14.00;99.90
38428;DHT22;24211;49.980;19.776;2023-05-20T07:15:58;14.10;99.90
38428;DHT22;24211;49.980;19.776;2023-05-20T07:18:26;14.10;99.90
38428;DHT22;24211;49.980;19.776;2023-05-20T07:20:55;14.20;99.90
38428;DHT22;24211;49.980;19.776;2023-05-20T07:23:33;14.30;99.90
38428;DHT22;24211;49.980;19.776;2023-05-20T07:26:01;14.40;99.90
38428;DHT22;24211;49.980;19.776;2023-05-20T07:28:28;14.40;99.90
38428;DHT22;24211;49.980;19.776;2023-05-20T07:30:57;14.40;99.90
38428;DHT22;24211;49.980;19.776;2023-05-20T07:33:28;14.50;99.90
38428;DHT22;24211;49.980;19.776;2023-05-20T07:35:56;14.60;99.90
38428;DHT22;24211;49.980;19.776;2023-05-20T07:38:23;14.70;99.90
38428;DHT22;24211;49.980;19.776;2023-05-20T07:40:56;14.70;99.90
38428;DHT22;24211;49.980;19.776;2023-05-20T07:43:23;14.60;99.90
38428;DHT22;24211;49.980;19.776;2023-05-20T07:45:51;14.70;99.90
38428;DHT22;24211;49.980;19.776;2023-05-20T07:48:18;14.70;99.90
38428;DHT22;24211;49.980;19.776;2023-05-20T07:50:45;14.80;99.90
38428;DHT22;24211;49.980;19.776;2023-05-20T07:53:14;14.90;99.90
38428;DHT22;24211;49.980;19.776;2023-05-20T07:55:41;14.90;99.90
38428;DHT22;24211;49.980;19.776;2023-05-20T07:58:09;14.90;99.90
38428;DHT22;24211;49.980;19.776;2023-05-20T08:00:36;15.00;99.90
38428;DHT22;24211;49.980;19.776;2023-05-20T08:03:06;15.00;99.90
38428;DHT22;24211;49.980;19.776;2023-05-20T08:05:46;15.10;99.90
38428;DHT22;24211;49.980;19.776;2023-05-20T08:08:14;15.20;99.90
38428;DHT22;24211;49.980;19.776;2023-05-20T08:10:56;15.20;99.90
38428;DHT22;24211;49.980;19.776;2023-05-20T08:13:25;15.20;99.90
38428;DHT22;24211;49.980;19.776;2023-05-20T08:15:53;15.20;99.90
38428;DHT22;24211;49.980;19.776;2023-05-20T08:18:21;15.40;99.90
38428;DHT22;24211;49.980;19.776;2023-05-20T08:20:49;15.40;99.90
38428;DHT22;24211;49.980;19.776;2023-05-20T08:23:17;15.50;99.90
38428;DHT22;24211;49.980;19.776;2023-05-20T08:25:44;15.60;99.90
38428;DHT22;24211;49.980;19.776;2023-05-20T08:28:15;15.60;99.90
38428;DHT22;24211;49.980;19.776;2023-05-20T08:30:44;15.60;99.90
38428;DHT22;24211;49.980;19.776;2023-05-20T08:33:11;15.60;99.90
38428;DHT22;24211;49.980;19.776;2023-05-20T08:35:39;15.70;99.90
38428;DHT22;24211;49.980;19.776;2023-05-20T08:41:51;16.00;99.90
38428;DHT22;24211;49.980;19.776;2023-05-20T08:44:20;15.90;99.90
38428;DHT22;24211;49.980;19.776;2023-05-20T08:46:49;15.90;99.90
38428;DHT22;24211;49.980;19.776;2023-05-20T08:49:19;15.90;99.90
38428;DHT22;24211;49.980;19.776;2023-05-20T08:51:46;15.90;99.90
38428;DHT22;24211;49.980;19.776;2023-05-20T08:54:14;15.90;99.90
38428;DHT22;24211;49.980;19.776;2023-05-20T08:56:43;16.10;99.90
38428;DHT22;24211;49.980;19.776;2023-05-20T08:59:10;16.10;99.90
38428;DHT22;24211;49.980;19.776;2023-05-20T09:01:41;16.10;99.90
38428;DHT22;24211;49.980;19.776;2023-05-20T09:04:11;16.30;99.90
38428;DHT22;24211;49.980;19.776;2023-05-20T09:06:45;16.30;99.90
38428;DHT22;24211;49.980;19.776;2023-05-20T09:09:13;16.40;99.90
38428;DHT22;24211;49.980;19.776;2023-05-20T09:11:41;16.40;99.90
38428;DHT22;24211;49.980;19.776;2023-05-20T09:14:08;16.30;99.90
38428;DHT22;24211;49.980;19.776;2023-05-20T09:16:38;16.50;99.90
38428;DHT22;24211;49.980;19.776;2023-05-20T09:19:06;16.60;99.90
38428;DHT22;24211;49.980;19.776;2023-05-20T09:21:34;16.70;99.90
38428;DHT22;24211;49.980;19.776;2023-05-20T09:24:03;16.80;99.90
38428;DHT22;24211;49.980;19.776;2023-05-20T09:26:30;16.90;99.90
38428;DHT22;24211;49.980;19.776;2023-05-20T09:28:59;16.70;99.90
38428;DHT22;24211;49.980;19.776;2023-05-20T09:31:27;16.80;99.90
38428;DHT22;24211;49.980;19.776;2023-05-20T09:34:02;16.70;99.90
38428;DHT22;24211;49.980;19.776;2023-05-20T09:36:29;16.80;99.90
38428;DHT22;24211;49.980;19.776;2023-05-20T09:39:02;16.80;99.90
38428;DHT22;24211;49.980;19.776;2023-05-20T09:41:51;16.80;99.90
38428;DHT22;24211;49.980;19.776;2023-05-20T09:44:23;16.90;99.90
38428;DHT22;24211;49.980;19.776;2023-05-20T09:46:51;16.80;99.90
38428;DHT22;24211;49.980;19.776;2023-05-20T09:49:20;16.80;99.90
38428;DHT22;24211;49.980;19.776;2023-05-20T09:51:49;16.90;99.90
38428;DHT22;24211;49.980;19.776;2023-05-20T09:59:39;17.00;99.90
38428;DHT22;24211;49.980;19.776;2023-05-20T10:02:07;17.20;99.90
38428;DHT22;24211;49.980;19.776;2023-05-20T10:04:36;17.00;99.90
38428;DHT22;24211;49.980;19.776;2023-05-20T10:07:50;17.00;99.90
38428;DHT22;24211;49.980;19.776;2023-05-20T10:20:06;17.20;99.90
38428;DHT22;24211;49.980;19.776;2023-05-20T10:22:56;17.40;99.90
38428;DHT22;24211;49.980;19.776;2023-05-20T10:25:26;17.50;99.90
38428;DHT22;24211;49.980;19.776;2023-05-20T10:28:06;17.60;99.90
38428;DHT22;24211;49.980;19.776;2023-05-20T10:30:35;17.70;99.90
38428;DHT22;24211;49.980;19.776;2023-05-20T10:33:04;17.70;99.90
38428;DHT22;24211;49.980;19.776;2023-05-20T10:35:33;17.70;99.90
38428;DHT22;24211;49.980;19.776;2023-05-20T10:38:10;17.70;99.90
38428;DHT22;24211;49.980;19.776;2023-05-20T10:41:07;17.80;99.90
38428;DHT22;24211;49.980;19.776;2023-05-20T10:43:41;18.00;99.90
38428;DHT22;24211;49.980;19.776;2023-05-20T10:46:16;18.10;99.90
38428;DHT22;24211;49.980;19.776;2023-05-20T10:49:33;18.30;99.90
38428;DHT22;24211;49.980;19.776;2023-05-20T10:52:01;18.40;99.90
38428;DHT22;24211;49.980;19.776;2023-05-20T10:54:35;18.60;99.90
38428;DHT22;24211;49.980;19.776;2023-05-20T10:57:06;18.70;99.90
38428;DHT22;24211;49.980;19.776;2023-05-20T10:59:35;18.70;99.90
38428;DHT22;24211;49.980;19.776;2023-05-20T11:02:03;18.80;99.90
38428;DHT22;24211;49.980;19.776;2023-05-20T11:04:31;18.80;99.90
38428;DHT22;24211;49.980;19.776;2023-05-20T11:06:59;19.00;99.90
38428;DHT22;24211;49.980;19.776;2023-05-20T11:12:48;19.30;99.90
38428;DHT22;24211;49.980;19.776;2023-05-20T11:15:15;19.50;99.90
38428;DHT22;24211;49.980;19.776;2023-05-20T11:17:54;19.50;99.90
38428;DHT22;24211;49.980;19.776;2023-05-20T11:20:22;19.80;99.90
38428;DHT22;24211;49.980;19.776;2023-05-20T11:22:51;19.70;99.90
38428;DHT22;24211;49.980;19.776;2023-05-20T11:25:44;20.00;99.90
38428;DHT22;24211;49.980;19.776;2023-05-20T11:28:38;20.20;99.90
38428;DHT22;24211;49.980;19.776;2023-05-20T11:31:05;20.50;99.90
38428;DHT22;24211;49.980;19.776;2023-05-20T11:33:33;20.70;99.90
38428;DHT22;24211;49.980;19.776;2023-05-20T11:36:01;21.20;99.90
38428;DHT22;24211;49.980;19.776;2023-05-20T11:38:30;21.40;99.90
38428;DHT22;24211;49.980;19.776;2023-05-20T11:40:58;21.10;99.90
38428;DHT22;24211;49.980;19.776;2023-05-20T11:43:25;21.20;99.90
38428;DHT22;24211;49.980;19.776;2023-05-20T11:45:54;21.00;99.90
38428;DHT22;24211;49.980;19.776;2023-05-20T11:48:25;21.00;99.90
38428;DHT22;24211;49.980;19.776;2023-05-20T11:50:54;21.40;99.90
38428;DHT22;24211;49.980;19.776;2023-05-20T11:53:23;21.60;99.90
38428;DHT22;24211;49.980;19.776;2023-05-20T11:56:00;21.90;99.90
38428;DHT22;24211;49.980;19.776;2023-05-20T11:58:29;22.20;99.90
38428;DHT22;24211;49.980;19.776;2023-05-20T12:00:57;22.50;99.90
38428;DHT22;24211;49.980;19.776;2023-05-20T12:03:39;22.40;99.90
38428;DHT22;24211;49.980;19.776;2023-05-20T12:06:07;22.00;99.90
38428;DHT22;24211;49.980;19.776;2023-05-20T12:08:38;22.10;99.90
38428;DHT22;24211;49.980;19.776;2023-05-20T12:11:05;22.20;99.90
38428;DHT22;24211;49.980;19.776;2023-05-20T12:13:32;22.50;99.90
38428;DHT22;24211;49.980;19.776;2023-05-20T12:19:47;22.60;99.90
38428;DHT22;24211;49.980;19.776;2023-05-20T12:22:14;22.50;99.90
38428;DHT22;24211;49.980;19.776;2023-05-20T12:24:42;22.20;99.90
38428;DHT22;24211;49.980;19.776;2023-05-20T12:27:09;22.30;99.90
38428;DHT22;24211;49.980;19.776;2023-05-20T12:29:36;22.10;99.90
38428;DHT22;24211;49.980;19.776;2023-05-20T12:32:03;22.00;99.90
38428;DHT22;24211;49.980;19.776;2023-05-20T12:34:31;22.20;99.90
38428;DHT22;24211;49.980;19.776;2023-05-20T12:36:58;22.30;99.90
38428;DHT22;24211;49.980;19.776;2023-05-20T12:39:26;22.30;99.90
38428;DHT22;24211;49.980;19.776;2023-05-20T12:46:25;22.40;99.90
38428;DHT22;24211;49.980;19.776;2023-05-20T12:49:09;23.00;99.90
38428;DHT22;24211;49.980;19.776;2023-05-20T12:51:37;22.80;99.90
38428;DHT22;24211;49.980;19.776;2023-05-20T12:54:05;22.60;99.90
38428;DHT22;24211;49.980;19.776;2023-05-20T12:56:32;22.80;99.90
38428;DHT22;24211;49.980;19.776;2023-05-20T13:03:34;23.00;99.90
38428;DHT22;24211;49.980;19.776;2023-05-20T13:06:01;22.80;99.90
38428;DHT22;24211;49.980;19.776;2023-05-20T13:08:30;22.80;99.90
38428;DHT22;24211;49.980;19.776;2023-05-20T13:10:57;23.00;99.90
38428;DHT22;24211;49.980;19.776;2023-05-20T13:13:24;23.00;99.90
38428;DHT22;24211;49.980;19.776;2023-05-20T13:15:51;22.90;99.90
38428;DHT22;24211;49.980;19.776;2023-05-20T13:18:21;23.00;99.90
38428;DHT22;24211;49.980;19.776;2023-05-20T13:20:49;22.90;99.90
38428;DHT22;24211;49.980;19.776;2023-05-20T13:23:16;23.00;99.90
38428;DHT22;24211;49.980;19.776;2023-05-20T13:25:43;23.00;99.90
38428;DHT22;24211;49.980;19.776;2023-05-20T13:33:14;23.10;99.90
38428;DHT22;24211;49.980;19.776;2023-05-20T13:35:45;23.30;99.90
38428;DHT22;24211;49.980;19.776;2023-05-20T13:38:12;23.30;99.90
38428;DHT22;24211;49.980;19.776;2023-05-20T13:40:39;23.50;99.90
38428;DHT22;24211;49.980;19.776;2023-05-20T13:43:06;23.90;99.90
38428;DHT22;24211;49.980;19.776;2023-05-20T13:45:33;23.80;99.90
38428;DHT22;24211;49.980;19.776;2023-05-20T13:48:01;23.60;99.90
38428;DHT22;24211;49.980;19.776;2023-05-20T13:50:56;23.80;99.90
38428;DHT22;24211;49.980;19.776;2023-05-20T13:53:24;23.90;99.90
38428;DHT22;24211;49.980;19.776;2023-05-20T14:04:04;23.70;99.90
38428;DHT22;24211;49.980;19.776;2023-05-20T14:06:31;23.60;99.90
38428;DHT22;24211;49.980;19.776;2023-05-20T14:08:58;23.40;99.90
38428;DHT22;24211;49.980;19.776;2023-05-20T14:11:26;23.40;99.90
38428;DHT22;24211;49.980;19.776;2023-05-20T14:13:53;23.20;99.90
38428;DHT22;24211;49.980;19.776;2023-05-20T14:16:20;23.30;99.90
38428;DHT22;24211;49.980;19.776;2023-05-20T14:18:47;23.30;99.90
38428;DHT22;24211;49.980;19.776;2023-05-20T14:21:14;23.10;99.90
38428;DHT22;24211;49.980;19.776;2023-05-20T14:23:42;23.30;99.90
38428;DHT22;24211;49.980;19.776;2023-05-20T14:26:11;23.30;99.90
38428;DHT22;24211;49.980;19.776;2023-05-20T14:28:38;23.20;99.90
38428;DHT22;24211;49.980;19.776;2023-05-20T14:31:05;23.30;99.90
38428;DHT22;24211;49.980;19.776;2023-05-20T14:33:35;23.20;99.90
38428;DHT22;24211;49.980;19.776;2023-05-20T14:36:03;23.20;99.90
38428;DHT22;24211;49.980;19.776;2023-05-20T14:38:30;23.10;99.90
38428;DHT22;24211;49.980;19.776;2023-05-20T14:40:57;23.30;99.90
38428;DHT22;24211;49.980;19.776;2023-05-20T14:43:29;23.40;99.90
38428;DHT22;24211;49.980;19.776;2023-05-20T14:45:58;23.70;99.90
38428;DHT22;24211;49.980;19.776;2023-05-20T14:48:27;23.80;99.90
38428;DHT22;24211;49.980;19.776;2023-05-20T14:50:55;23.70;99.90
38428;DHT22;24211;49.980;19.776;2023-05-20T14:53:22;23.60;99.90
38428;DHT22;24211;49.980;19.776;2023-05-20T14:55:49;23.50;99.90
38428;DHT22;24211;49.980;19.776;2023-05-20T14:58:17;23.50;99.90
38428;DHT22;24211;49.980;19.776;2023-05-20T15:00:44;23.50;99.90
38428;DHT22;24211;49.980;19.776;2023-05-20T15:03:11;23.40;99.90
38428;DHT22;24211;49.980;19.776;2023-05-20T15:05:38;23.50;99.90
38428;DHT22;24211;49.980;19.776;2023-05-20T15:08:07;23.50;99.90
38428;DHT22;24211;49.980;19.776;2023-05-20T15:10:34;23.50;99.90
38428;DHT22;24211;49.980;19.776;2023-05-20T15:13:02;23.60;99.90
38428;DHT22;24211;49.980;19.776;2023-05-20T15:16:47;23.70;99.90
38428;DHT22;24211;49.980;19.776;2023-05-20T15:19:17;23.50;99.90
38428;DHT22;24211;49.980;19.776;2023-05-20T15:21:59;23.40;99.90
38428;DHT22;24211;49.980;19.776;2023-05-20T15:24:26;23.60;99.90
38428;DHT22;24211;49.980;19.776;2023-05-20T15:26:53;23.60;99.90
38428;DHT22;24211;49.980;19.776;2023-05-20T15:29:21;23.50;99.90
38428;DHT22;24211;49.980;19.776;2023-05-20T15:31:48;23.40;99.90
38428;DHT22;24211;49.980;19.776;2023-05-20T15:34:17;23.20;99.90
38428;DHT22;24211;49.980;19.776;2023-05-20T15:36:47;23.30;99.90
38428;DHT22;24211;49.980;19.776;2023-05-20T15:39:15;23.30;99.90
38428;DHT22;24211;49.980;19.776;2023-05-20T15:41:42;23.30;99.90
38428;DHT22;24211;49.980;19.776;2023-05-20T15:44:09;23.50;99.90
38428;DHT22;24211;49.980;19.776;2023-05-20T15:46:36;23.50;99.90
38428;DHT22;24211;49.980;19.776;2023-05-20T15:49:04;23.40;99.90
38428;DHT22;24211;49.980;19.776;2023-05-20T15:51:31;23.30;99.90
38428;DHT22;24211;49.980;19.776;2023-05-20T15:58:11;23.50;99.90
38428;DHT22;24211;49.980;19.776;2023-05-20T16:00:38;23.50;99.90
38428;DHT22;24211;49.980;19.776;2023-05-20T16:06:24;23.40;99.90
38428;DHT22;24211;49.980;19.776;2023-05-20T16:08:57;23.30;99.90
38428;DHT22;24211;49.980;19.776;2023-05-20T16:11:31;23.50;99.90
38428;DHT22;24211;49.980;19.776;2023-05-20T16:13:58;23.30;99.90
38428;DHT22;24211;49.980;19.776;2023-05-20T16:16:25;23.30;99.90
38428;DHT22;24211;49.980;19.776;2023-05-20T16:18:52;23.30;99.90
38428;DHT22;24211;49.980;19.776;2023-05-20T16:24:40;23.60;99.90
38428;DHT22;24211;49.980;19.776;2023-05-20T16:32:18;23.30;99.90
38428;DHT22;24211;49.980;19.776;2023-05-20T16:34:47;23.50;99.90
38428;DHT22;24211;49.980;19.776;2023-05-20T16:37:15;23.40;99.90
38428;DHT22;24211;49.980;19.776;2023-05-20T16:43:39;23.20;99.90
38428;DHT22;24211;49.980;19.776;2023-05-20T16:49:32;23.20;99.90
38428;DHT22;24211;49.980;19.776;2023-05-20T16:52:00;23.10;99.90
38428;DHT22;24211;49.980;19.776;2023-05-20T16:54:27;23.20;99.90
38428;DHT22;24211;49.980;19.776;2023-05-20T16:57:21;23.10;99.90
38428;DHT22;24211;49.980;19.776;2023-05-20T17:00:54;23.10;99.90
38428;DHT22;24211;49.980;19.776;2023-05-20T17:08:38;23.20;99.90